sensor_id;sensor_type;location;lat;lon;timestamp;temperature;humidity
5278;DHT22;2662;51.194;6.614;2022-07-29T00:01:02;20.70;99.90
5278;DHT22;2662;51.194;6.614;2022-07-29T00:03:29;20.70;99.90
5278;DHT22;2662;51.194;6.614;2022-07-29T00:05:56;20.70;99.90
5278;DHT22;2662;51.194;6.614;2022-07-29T00:08:22;20.80;99.90
5278;DHT22;2662;51.194;6.614;2022-07-29T00:10:49;20.80;99.90
5278;DHT22;2662;51.194;6.614;2022-07-29T00:13:16;20.90;99.90
5278;DHT22;2662;51.194;6.614;2022-07-29T00:15:43;20.80;99.90
5278;DHT22;2662;51.194;6.614;2022-07-29T00:18:11;20.90;99.90
5278;DHT22;2662;51.194;6.614;2022-07-29T00:20:38;20.70;99.90
5278;DHT22;2662;51.194;6.614;2022-07-29T00:23:04;20.70;99.90
5278;DHT22;2662;51.194;6.614;2022-07-29T00:25:31;20.60;99.90
5278;DHT22;2662;51.194;6.614;2022-07-29T00:27:58;20.50;99.90
5278;DHT22;2662;51.194;6.614;2022-07-29T00:30:25;20.40;99.90
5278;DHT22;2662;51.194;6.614;2022-07-29T00:32:51;20.30;99.90
5278;DHT22;2662;51.194;6.614;2022-07-29T00:35:19;20.30;99.90
5278;DHT22;2662;51.194;6.614;2022-07-29T00:38:04;20.40;99.90
5278;DHT22;2662;51.194;6.614;2022-07-29T00:40:30;20.20;99.90
5278;DHT22;2662;51.194;6.614;2022-07-29T00:42:57;20.20;99.90
5278;DHT22;2662;51.194;6.614;2022-07-29T00:45:24;20.30;99.90
5278;DHT22;2662;51.194;6.614;2022-07-29T00:47:51;20.40;99.90
5278;DHT22;2662;51.194;6.614;2022-07-29T00:50:18;20.30;99.90
5278;DHT22;2662;51.194;6.614;2022-07-29T00:52:46;20.30;99.90
5278;DHT22;2662;51.194;6.614;2022-07-29T00:55:15;20.30;99.90
5278;DHT22;2662;51.194;6.614;2022-07-29T00:57:43;20.30;99.90
5278;DHT22;2662;51.194;6.614;2022-07-29T01:00:13;20.20;99.90
5278;DHT22;2662;51.194;6.614;2022-07-29T01:02:40;20.20;99.90
5278;DHT22;2662;51.194;6.614;2022-07-29T01:05:07;20.10;99.90
5278;DHT22;2662;51.194;6.614;2022-07-29T01:07:35;20.10;99.90
5278;DHT22;2662;51.194;6.614;2022-07-29T01:10:08;20.20;99.90
5278;DHT22;2662;51.194;6.614;2022-07-29T01:12:37;20.20;99.90
5278;DHT22;2662;51.194;6.614;2022-07-29T01:15:06;20.30;99.90
5278;DHT22;2662;51.194;6.614;2022-07-29T01:17:42;20.40;99.90
5278;DHT22;2662;51.194;6.614;2022-07-29T01:20:14;20.40;99.90
5278;DHT22;2662;51.194;6.614;2022-07-29T01:23:00;20.50;99.90
5278;DHT22;2662;51.194;6.614;2022-07-29T01:28:53;20.60;99.90
5278;DHT22;2662;51.194;6.614;2022-07-29T01:31:24;20.70;99.90
5278;DHT22;2662;51.194;6.614;2022-07-29T01:33:57;20.70;99.90
5278;DHT22;2662;51.194;6.614;2022-07-29T01:36:36;20.70;99.90
5278;DHT22;2662;51.194;6.614;2022-07-29T01:39:14;20.70;99.90
5278;DHT22;2662;51.194;6.614;2022-07-29T01:41:49;20.70;99.90
5278;DHT22;2662;51.194;6.614;2022-07-29T01:44:22;20.70;99.90
5278;DHT22;2662;51.194;6.614;2022-07-29T01:46:53;20.80;99.90
5278;DHT22;2662;51.194;6.614;2022-07-29T01:49:24;20.70;99.90
5278;DHT22;2662;51.194;6.614;2022-07-29T01:51:56;20.70;99.90
5278;DHT22;2662;51.194;6.614;2022-07-29T01:54:28;20.80;99.90
5278;DHT22;2662;51.194;6.614;2022-07-29T01:56:58;20.80;99.90
5278;DHT22;2662;51.194;6.614;2022-07-29T01:59:29;20.70;99.90
5278;DHT22;2662;51.194;6.614;2022-07-29T02:01:58;20.80;99.90
5278;DHT22;2662;51.194;6.614;2022-07-29T02:04:26;20.80;99.90
5278;DHT22;2662;51.194;6.614;2022-07-29T02:06:58;20.80;99.90
5278;DHT22;2662;51.194;6.614;2022-07-29T02:09:26;20.80;99.90
5278;DHT22;2662;51.194;6.614;2022-07-29T02:11:55;20.70;99.90
5278;DHT22;2662;51.194;6.614;2022-07-29T02:14:24;20.60;99.90
5278;DHT22;2662;51.194;6.614;2022-07-29T02:16:56;20.60;99.90
5278;DHT22;2662;51.194;6.614;2022-07-29T02:19:25;20.50;99.90
5278;DHT22;2662;51.194;6.614;2022-07-29T02:21:54;20.30;99.90
5278;DHT22;2662;51.194;6.614;2022-07-29T02:24:23;20.20;99.90
5278;DHT22;2662;51.194;6.614;2022-07-29T02:26:53;20.20;99.90
5278;DHT22;2662;51.194;6.614;2022-07-29T02:29:25;20.20;99.90
5278;DHT22;2662;51.194;6.614;2022-07-29T02:31:55;20.10;99.90
5278;DHT22;2662;51.194;6.614;2022-07-29T02:34:23;20.00;99.90
5278;DHT22;2662;51.194;6.614;2022-07-29T02:36:51;19.90;99.90
5278;DHT22;2662;51.194;6.614;2022-07-29T02:39:19;19.90;99.90
5278;DHT22;2662;51.194;6.614;2022-07-29T02:41:47;19.90;99.90
5278;DHT22;2662;51.194;6.614;2022-07-29T02:44:16;19.80;99.90
5278;DHT22;2662;51.194;6.614;2022-07-29T02:46:47;19.90;99.90
5278;DHT22;2662;51.194;6.614;2022-07-29T02:49:18;19.90;99.90
5278;DHT22;2662;51.194;6.614;2022-07-29T02:51:54;19.70;99.90
5278;DHT22;2662;51.194;6.614;2022-07-29T02:54:26;19.60;99.90
5278;DHT22;2662;51.194;6.614;2022-07-29T02:56:58;19.40;99.90
5278;DHT22;2662;51.194;6.614;2022-07-29T02:59:27;19.40;99.90
5278;DHT22;2662;51.194;6.614;2022-07-29T03:01:57;19.30;99.90
5278;DHT22;2662;51.194;6.614;2022-07-29T03:04:27;19.30;99.90
5278;DHT22;2662;51.194;6.614;2022-07-29T03:06:57;19.30;99.90
5278;DHT22;2662;51.194;6.614;2022-07-29T03:09:25;19.30;99.90
5278;DHT22;2662;51.194;6.614;2022-07-29T03:11:53;19.30;99.90
5278;DHT22;2662;51.194;6.614;2022-07-29T03:14:20;19.30;99.90
5278;DHT22;2662;51.194;6.614;2022-07-29T03:16:49;19.30;99.90
5278;DHT22;2662;51.194;6.614;2022-07-29T03:19:16;19.30;99.90
5278;DHT22;2662;51.194;6.614;2022-07-29T03:21:45;19.40;99.90
5278;DHT22;2662;51.194;6.614;2022-07-29T03:24:28;19.40;99.90
5278;DHT22;2662;51.194;6.614;2022-07-29T03:26:55;19.20;99.90
5278;DHT22;2662;51.194;6.614;2022-07-29T03:29:23;18.80;99.90
5278;DHT22;2662;51.194;6.614;2022-07-29T03:31:50;18.50;99.90
5278;DHT22;2662;51.194;6.614;2022-07-29T03:34:16;18.20;99.90
5278;DHT22;2662;51.194;6.614;2022-07-29T03:36:46;17.80;99.90
5278;DHT22;2662;51.194;6.614;2022-07-29T03:39:15;17.40;99.90
5278;DHT22;2662;51.194;6.614;2022-07-29T03:41:45;16.90;99.90
5278;DHT22;2662;51.194;6.614;2022-07-29T03:44:13;16.50;99.90
5278;DHT22;2662;51.194;6.614;2022-07-29T03:46:43;16.20;99.90
5278;DHT22;2662;51.194;6.614;2022-07-29T03:49:11;16.10;99.90
5278;DHT22;2662;51.194;6.614;2022-07-29T03:51:40;15.90;99.90
5278;DHT22;2662;51.194;6.614;2022-07-29T03:54:09;15.80;99.90
5278;DHT22;2662;51.194;6.614;2022-07-29T03:56:39;15.90;99.90
5278;DHT22;2662;51.194;6.614;2022-07-29T03:59:07;15.90;99.90
5278;DHT22;2662;51.194;6.614;2022-07-29T04:01:34;16.00;99.90
5278;DHT22;2662;51.194;6.614;2022-07-29T04:04:02;16.00;99.90
5278;DHT22;2662;51.194;6.614;2022-07-29T04:06:38;16.10;99.90
5278;DHT22;2662;51.194;6.614;2022-07-29T04:09:05;16.10;99.90
5278;DHT22;2662;51.194;6.614;2022-07-29T04:11:33;16.00;99.90
5278;DHT22;2662;51.194;6.614;2022-07-29T04:14:00;15.80;99.90
5278;DHT22;2662;51.194;6.614;2022-07-29T04:16:26;15.60;99.90
5278;DHT22;2662;51.194;6.614;2022-07-29T04:18:53;15.70;99.90
5278;DHT22;2662;51.194;6.614;2022-07-29T04:21:20;15.80;99.90
5278;DHT22;2662;51.194;6.614;2022-07-29T04:23:47;15.80;99.90
5278;DHT22;2662;51.194;6.614;2022-07-29T04:26:15;15.90;99.90
5278;DHT22;2662;51.194;6.614;2022-07-29T04:28:43;16.00;99.90
5278;DHT22;2662;51.194;6.614;2022-07-29T04:31:10;16.20;99.90
5278;DHT22;2662;51.194;6.614;2022-07-29T04:33:37;16.30;99.90
5278;DHT22;2662;51.194;6.614;2022-07-29T04:36:04;16.50;99.90
5278;DHT22;2662;51.194;6.614;2022-07-29T04:38:31;16.60;99.90
5278;DHT22;2662;51.194;6.614;2022-07-29T04:40:58;16.60;99.90
5278;DHT22;2662;51.194;6.614;2022-07-29T04:43:25;16.60;99.90
5278;DHT22;2662;51.194;6.614;2022-07-29T04:45:53;16.70;99.90
5278;DHT22;2662;51.194;6.614;2022-07-29T04:48:20;16.70;99.90
5278;DHT22;2662;51.194;6.614;2022-07-29T04:50:47;16.80;99.90
5278;DHT22;2662;51.194;6.614;2022-07-29T04:53:13;16.70;99.90
5278;DHT22;2662;51.194;6.614;2022-07-29T04:55:41;16.70;99.90
5278;DHT22;2662;51.194;6.614;2022-07-29T04:58:08;16.70;99.90
5278;DHT22;2662;51.194;6.614;2022-07-29T05:00:35;16.70;99.90
5278;DHT22;2662;51.194;6.614;2022-07-29T05:03:03;16.60;99.90
5278;DHT22;2662;51.194;6.614;2022-07-29T05:05:30;16.40;99.90
5278;DHT22;2662;51.194;6.614;2022-07-29T05:08:04;16.40;99.90
5278;DHT22;2662;51.194;6.614;2022-07-29T05:10:30;16.30;99.90
5278;DHT22;2662;51.194;6.614;2022-07-29T05:12:58;16.30;99.90
5278;DHT22;2662;51.194;6.614;2022-07-29T05:15:24;16.40;99.90
5278;DHT22;2662;51.194;6.614;2022-07-29T05:17:51;16.50;99.90
5278;DHT22;2662;51.194;6.614;2022-07-29T05:20:19;16.60;99.90
5278;DHT22;2662;51.194;6.614;2022-07-29T05:22:51;16.80;99.90
5278;DHT22;2662;51.194;6.614;2022-07-29T05:25:18;16.90;99.90
5278;DHT22;2662;51.194;6.614;2022-07-29T05:27:45;16.90;99.90
5278;DHT22;2662;51.194;6.614;2022-07-29T05:30:12;16.80;99.90
5278;DHT22;2662;51.194;6.614;2022-07-29T05:32:39;16.70;99.90
5278;DHT22;2662;51.194;6.614;2022-07-29T05:35:06;16.60;99.90
5278;DHT22;2662;51.194;6.614;2022-07-29T05:37:34;16.60;99.90
5278;DHT22;2662;51.194;6.614;2022-07-29T05:40:02;16.70;99.90
5278;DHT22;2662;51.194;6.614;2022-07-29T05:42:29;16.80;99.90
5278;DHT22;2662;51.194;6.614;2022-07-29T05:44:55;17.00;99.90
5278;DHT22;2662;51.194;6.614;2022-07-29T05:47:22;17.20;99.90
5278;DHT22;2662;51.194;6.614;2022-07-29T05:49:49;17.20;99.90
5278;DHT22;2662;51.194;6.614;2022-07-29T05:52:17;17.30;99.90
5278;DHT22;2662;51.194;6.614;2022-07-29T05:54:45;17.30;99.90
5278;DHT22;2662;51.194;6.614;2022-07-29T05:57:15;17.40;99.90
5278;DHT22;2662;51.194;6.614;2022-07-29T05:59:42;17.60;99.90
5278;DHT22;2662;51.194;6.614;2022-07-29T06:02:09;17.70;99.90
5278;DHT22;2662;51.194;6.614;2022-07-29T06:04:36;17.80;99.90
5278;DHT22;2662;51.194;6.614;2022-07-29T06:07:03;17.90;99.90
5278;DHT22;2662;51.194;6.614;2022-07-29T06:09:30;18.00;99.90
5278;DHT22;2662;51.194;6.614;2022-07-29T06:11:59;17.90;99.90
5278;DHT22;2662;51.194;6.614;2022-07-29T06:14:26;17.90;99.90
5278;DHT22;2662;51.194;6.614;2022-07-29T06:16:53;17.70;99.90
5278;DHT22;2662;51.194;6.614;2022-07-29T06:19:20;17.50;99.90
5278;DHT22;2662;51.194;6.614;2022-07-29T06:21:47;17.50;99.90
5278;DHT22;2662;51.194;6.614;2022-07-29T06:24:15;17.60;99.90
5278;DHT22;2662;51.194;6.614;2022-07-29T06:26:43;17.70;99.90
5278;DHT22;2662;51.194;6.614;2022-07-29T06:29:11;18.00;99.90
5278;DHT22;2662;51.194;6.614;2022-07-29T06:31:38;18.10;99.90
5278;DHT22;2662;51.194;6.614;2022-07-29T06:34:05;18.20;99.90
5278;DHT22;2662;51.194;6.614;2022-07-29T06:36:34;18.30;99.90
5278;DHT22;2662;51.194;6.614;2022-07-29T06:39:01;18.30;99.90
5278;DHT22;2662;51.194;6.614;2022-07-29T06:41:27;18.40;99.90
5278;DHT22;2662;51.194;6.614;2022-07-29T06:43:55;18.50;99.90
5278;DHT22;2662;51.194;6.614;2022-07-29T06:46:23;18.60;99.90
5278;DHT22;2662;51.194;6.614;2022-07-29T06:48:50;18.70;99.90
5278;DHT22;2662;51.194;6.614;2022-07-29T06:51:17;18.70;99.90
5278;DHT22;2662;51.194;6.614;2022-07-29T06:53:44;18.80;99.90
5278;DHT22;2662;51.194;6.614;2022-07-29T06:56:11;18.80;99.90
5278;DHT22;2662;51.194;6.614;2022-07-29T06:58:39;18.90;99.90
5278;DHT22;2662;51.194;6.614;2022-07-29T07:01:06;18.90;99.90
5278;DHT22;2662;51.194;6.614;2022-07-29T07:03:34;18.90;99.90
5278;DHT22;2662;51.194;6.614;2022-07-29T07:06:01;19.00;99.90
5278;DHT22;2662;51.194;6.614;2022-07-29T07:08:28;19.00;99.90
5278;DHT22;2662;51.194;6.614;2022-07-29T07:10:55;19.00;99.90
5278;DHT22;2662;51.194;6.614;2022-07-29T07:13:22;19.10;99.90
5278;DHT22;2662;51.194;6.614;2022-07-29T07:15:49;19.00;99.90
5278;DHT22;2662;51.194;6.614;2022-07-29T07:18:17;19.00;99.90
5278;DHT22;2662;51.194;6.614;2022-07-29T07:20:45;19.00;99.90
5278;DHT22;2662;51.194;6.614;2022-07-29T07:23:13;19.00;99.90
5278;DHT22;2662;51.194;6.614;2022-07-29T07:25:39;19.00;99.90
5278;DHT22;2662;51.194;6.614;2022-07-29T07:28:07;19.00;99.90
5278;DHT22;2662;51.194;6.614;2022-07-29T07:30:34;18.90;99.90
5278;DHT22;2662;51.194;6.614;2022-07-29T07:33:01;18.70;99.90
5278;DHT22;2662;51.194;6.614;2022-07-29T07:35:27;18.70;99.90
5278;DHT22;2662;51.194;6.614;2022-07-29T07:37:56;18.60;99.90
5278;DHT22;2662;51.194;6.614;2022-07-29T07:40:24;18.50;99.90
5278;DHT22;2662;51.194;6.614;2022-07-29T07:42:50;18.50;99.90
5278;DHT22;2662;51.194;6.614;2022-07-29T07:45:17;18.70;99.90
5278;DHT22;2662;51.194;6.614;2022-07-29T07:47:44;18.70;99.90
5278;DHT22;2662;51.194;6.614;2022-07-29T07:50:12;18.60;99.90
5278;DHT22;2662;51.194;6.614;2022-07-29T07:52:47;18.60;99.90
5278;DHT22;2662;51.194;6.614;2022-07-29T07:55:15;18.70;99.90
5278;DHT22;2662;51.194;6.614;2022-07-29T07:57:42;18.80;99.90
5278;DHT22;2662;51.194;6.614;2022-07-29T08:00:10;18.90;99.90
5278;DHT22;2662;51.194;6.614;2022-07-29T08:02:37;18.80;99.90
5278;DHT22;2662;51.194;6.614;2022-07-29T08:05:05;18.80;99.90
5278;DHT22;2662;51.194;6.614;2022-07-29T08:07:32;18.80;99.90
5278;DHT22;2662;51.194;6.614;2022-07-29T08:09:59;18.80;99.90
5278;DHT22;2662;51.194;6.614;2022-07-29T08:12:27;18.80;99.90
5278;DHT22;2662;51.194;6.614;2022-07-29T08:14:53;18.90;99.90
5278;DHT22;2662;51.194;6.614;2022-07-29T08:17:20;18.80;99.90
5278;DHT22;2662;51.194;6.614;2022-07-29T08:22:12;19.00;99.90
5278;DHT22;2662;51.194;6.614;2022-07-29T08:24:39;19.00;99.90
5278;DHT22;2662;51.194;6.614;2022-07-29T08:27:09;19.10;99.90
5278;DHT22;2662;51.194;6.614;2022-07-29T08:29:38;19.20;99.90
5278;DHT22;2662;51.194;6.614;2022-07-29T08:34:30;19.50;99.90
5278;DHT22;2662;51.194;6.614;2022-07-29T08:36:57;19.70;99.90
5278;DHT22;2662;51.194;6.614;2022-07-29T08:39:24;19.90;99.90
5278;DHT22;2662;51.194;6.614;2022-07-29T08:41:52;20.00;99.90
5278;DHT22;2662;51.194;6.614;2022-07-29T08:44:20;20.00;99.90
5278;DHT22;2662;51.194;6.614;2022-07-29T08:46:49;20.10;99.90
5278;DHT22;2662;51.194;6.614;2022-07-29T08:49:16;20.00;99.90
5278;DHT22;2662;51.194;6.614;2022-07-29T08:51:43;20.00;99.90
5278;DHT22;2662;51.194;6.614;2022-07-29T08:54:10;20.10;99.90
5278;DHT22;2662;51.194;6.614;2022-07-29T08:56:38;20.20;99.90
5278;DHT22;2662;51.194;6.614;2022-07-29T08:59:08;20.40;99.90
5278;DHT22;2662;51.194;6.614;2022-07-29T09:01:37;20.50;99.90
5278;DHT22;2662;51.194;6.614;2022-07-29T09:04:10;20.70;99.90
5278;DHT22;2662;51.194;6.614;2022-07-29T09:06:42;20.80;99.90
5278;DHT22;2662;51.194;6.614;2022-07-29T09:09:10;20.90;99.90
5278;DHT22;2662;51.194;6.614;2022-07-29T09:11:37;21.10;99.90
5278;DHT22;2662;51.194;6.614;2022-07-29T09:14:04;21.00;99.90
5278;DHT22;2662;51.194;6.614;2022-07-29T09:16:55;21.30;99.90
5278;DHT22;2662;51.194;6.614;2022-07-29T09:19:26;21.90;99.90
5278;DHT22;2662;51.194;6.614;2022-07-29T09:21:54;22.60;99.90
5278;DHT22;2662;51.194;6.614;2022-07-29T09:24:24;22.70;99.90
5278;DHT22;2662;51.194;6.614;2022-07-29T09:26:51;22.90;99.90
5278;DHT22;2662;51.194;6.614;2022-07-29T09:29:19;23.10;99.90
5278;DHT22;2662;51.194;6.614;2022-07-29T09:31:48;23.20;99.90
5278;DHT22;2662;51.194;6.614;2022-07-29T09:34:17;24.20;99.90
5278;DHT22;2662;51.194;6.614;2022-07-29T09:36:50;25.30;99.90
5278;DHT22;2662;51.194;6.614;2022-07-29T09:39:27;26.30;99.90
5278;DHT22;2662;51.194;6.614;2022-07-29T09:41:56;27.60;99.90
5278;DHT22;2662;51.194;6.614;2022-07-29T09:44:23;28.70;99.90
5278;DHT22;2662;51.194;6.614;2022-07-29T09:46:58;29.70;99.90
5278;DHT22;2662;51.194;6.614;2022-07-29T09:49:31;30.60;99.90
5278;DHT22;2662;51.194;6.614;2022-07-29T09:52:07;31.00;99.90
5278;DHT22;2662;51.194;6.614;2022-07-29T09:54:35;31.90;99.90
5278;DHT22;2662;51.194;6.614;2022-07-29T09:57:07;32.70;99.90
5278;DHT22;2662;51.194;6.614;2022-07-29T09:59:35;33.20;97.60
5278;DHT22;2662;51.194;6.614;2022-07-29T10:02:11;33.60;95.80
5278;DHT22;2662;51.194;6.614;2022-07-29T10:04:39;33.80;94.60
5278;DHT22;2662;51.194;6.614;2022-07-29T10:07:07;33.90;94.60
5278;DHT22;2662;51.194;6.614;2022-07-29T10:09:35;34.10;92.60
5278;DHT22;2662;51.194;6.614;2022-07-29T10:12:18;32.60;91.60
5278;DHT22;2662;51.194;6.614;2022-07-29T10:14:45;31.10;91.90
5278;DHT22;2662;51.194;6.614;2022-07-29T10:17:12;30.30;94.00
5278;DHT22;2662;51.194;6.614;2022-07-29T10:19:39;29.60;94.80
5278;DHT22;2662;51.194;6.614;2022-07-29T10:22:09;28.80;95.20
5278;DHT22;2662;51.194;6.614;2022-07-29T10:24:37;28.70;96.80
5278;DHT22;2662;51.194;6.614;2022-07-29T10:27:06;28.70;96.60
5278;DHT22;2662;51.194;6.614;2022-07-29T10:29:34;28.50;95.00
5278;DHT22;2662;51.194;6.614;2022-07-29T10:32:27;28.60;97.20
5278;DHT22;2662;51.194;6.614;2022-07-29T10:35:32;28.20;96.10
5278;DHT22;2662;51.194;6.614;2022-07-29T10:38:15;27.70;96.90
5278;DHT22;2662;51.194;6.614;2022-07-29T10:40:55;27.40;97.40
5278;DHT22;2662;51.194;6.614;2022-07-29T10:46:40;27.10;97.70
5278;DHT22;2662;51.194;6.614;2022-07-29T10:49:09;26.80;99.00
5278;DHT22;2662;51.194;6.614;2022-07-29T10:51:57;26.60;99.90
5278;DHT22;2662;51.194;6.614;2022-07-29T10:54:39;26.70;99.90
5278;DHT22;2662;51.194;6.614;2022-07-29T10:57:28;26.70;99.90
5278;DHT22;2662;51.194;6.614;2022-07-29T11:00:26;26.60;99.90
5278;DHT22;2662;51.194;6.614;2022-07-29T11:02:55;26.70;99.90
5278;DHT22;2662;51.194;6.614;2022-07-29T11:05:23;26.80;99.90
5278;DHT22;2662;51.194;6.614;2022-07-29T11:08:18;26.70;99.90
5278;DHT22;2662;51.194;6.614;2022-07-29T11:10:47;26.90;99.90
5278;DHT22;2662;51.194;6.614;2022-07-29T11:16:12;26.80;99.90
5278;DHT22;2662;51.194;6.614;2022-07-29T11:19:19;26.70;99.90
5278;DHT22;2662;51.194;6.614;2022-07-29T11:21:47;27.20;99.90
5278;DHT22;2662;51.194;6.614;2022-07-29T11:24:16;27.30;99.90
5278;DHT22;2662;51.194;6.614;2022-07-29T11:26:43;27.30;99.90
5278;DHT22;2662;51.194;6.614;2022-07-29T11:29:19;27.40;99.90
5278;DHT22;2662;51.194;6.614;2022-07-29T11:31:49;27.30;99.90
5278;DHT22;2662;51.194;6.614;2022-07-29T11:34:26;27.20;99.90
5278;DHT22;2662;51.194;6.614;2022-07-29T11:37:24;27.10;99.90
5278;DHT22;2662;51.194;6.614;2022-07-29T11:40:13;27.20;99.90
5278;DHT22;2662;51.194;6.614;2022-07-29T11:42:45;27.00;99.90
5278;DHT22;2662;51.194;6.614;2022-07-29T11:45:14;26.90;99.90
5278;DHT22;2662;51.194;6.614;2022-07-29T11:47:51;26.80;99.90
5278;DHT22;2662;51.194;6.614;2022-07-29T11:50:31;26.70;99.90
5278;DHT22;2662;51.194;6.614;2022-07-29T11:53:00;26.60;99.90
5278;DHT22;2662;51.194;6.614;2022-07-29T11:55:27;26.60;99.90
5278;DHT22;2662;51.194;6.614;2022-07-29T11:57:55;26.80;99.90
5278;DHT22;2662;51.194;6.614;2022-07-29T12:00:27;27.00;99.90
5278;DHT22;2662;51.194;6.614;2022-07-29T12:02:55;27.20;99.90
5278;DHT22;2662;51.194;6.614;2022-07-29T12:05:36;27.20;99.90
5278;DHT22;2662;51.194;6.614;2022-07-29T12:08:12;27.20;99.90
5278;DHT22;2662;51.194;6.614;2022-07-29T12:10:40;27.30;99.90
5278;DHT22;2662;51.194;6.614;2022-07-29T12:13:07;27.20;99.90
5278;DHT22;2662;51.194;6.614;2022-07-29T12:15:34;27.30;99.90
5278;DHT22;2662;51.194;6.614;2022-07-29T12:18:10;27.80;99.90
5278;DHT22;2662;51.194;6.614;2022-07-29T12:20:39;27.90;99.90
5278;DHT22;2662;51.194;6.614;2022-07-29T12:23:07;28.10;99.90
5278;DHT22;2662;51.194;6.614;2022-07-29T12:25:34;28.10;99.90
5278;DHT22;2662;51.194;6.614;2022-07-29T12:28:03;27.60;99.90
5278;DHT22;2662;51.194;6.614;2022-07-29T12:30:36;27.30;99.90
5278;DHT22;2662;51.194;6.614;2022-07-29T12:33:11;27.00;99.90
5278;DHT22;2662;51.194;6.614;2022-07-29T12:35:40;26.60;99.90
5278;DHT22;2662;51.194;6.614;2022-07-29T12:38:10;26.60;99.90
5278;DHT22;2662;51.194;6.614;2022-07-29T12:40:37;26.60;99.90
5278;DHT22;2662;51.194;6.614;2022-07-29T12:43:09;26.60;99.90
5278;DHT22;2662;51.194;6.614;2022-07-29T12:45:36;26.80;99.90
5278;DHT22;2662;51.194;6.614;2022-07-29T12:48:04;26.80;99.90
5278;DHT22;2662;51.194;6.614;2022-07-29T12:50:34;26.80;99.90
5278;DHT22;2662;51.194;6.614;2022-07-29T12:53:10;26.70;99.90
5278;DHT22;2662;51.194;6.614;2022-07-29T12:55:45;26.90;99.90
5278;DHT22;2662;51.194;6.614;2022-07-29T12:58:25;26.90;99.90
5278;DHT22;2662;51.194;6.614;2022-07-29T13:01:02;27.10;99.90
5278;DHT22;2662;51.194;6.614;2022-07-29T13:03:42;27.00;99.90
5278;DHT22;2662;51.194;6.614;2022-07-29T13:06:27;26.60;99.90
5278;DHT22;2662;51.194;6.614;2022-07-29T13:09:00;26.60;99.90
5278;DHT22;2662;51.194;6.614;2022-07-29T13:11:29;26.70;99.90
5278;DHT22;2662;51.194;6.614;2022-07-29T13:13:55;26.60;99.90
5278;DHT22;2662;51.194;6.614;2022-07-29T13:16:22;26.60;99.90
5278;DHT22;2662;51.194;6.614;2022-07-29T13:19:06;26.60;99.90
5278;DHT22;2662;51.194;6.614;2022-07-29T13:21:33;26.50;99.90
5278;DHT22;2662;51.194;6.614;2022-07-29T13:24:01;26.30;99.90
5278;DHT22;2662;51.194;6.614;2022-07-29T13:26:28;26.50;99.90
5278;DHT22;2662;51.194;6.614;2022-07-29T13:28:55;26.50;99.90
5278;DHT22;2662;51.194;6.614;2022-07-29T13:31:22;26.50;99.90
5278;DHT22;2662;51.194;6.614;2022-07-29T13:33:48;26.40;99.90
5278;DHT22;2662;51.194;6.614;2022-07-29T13:36:15;26.50;99.90
5278;DHT22;2662;51.194;6.614;2022-07-29T13:38:43;26.60;99.90
5278;DHT22;2662;51.194;6.614;2022-07-29T13:41:11;26.60;99.90
5278;DHT22;2662;51.194;6.614;2022-07-29T13:43:37;26.60;99.90
5278;DHT22;2662;51.194;6.614;2022-07-29T13:46:04;26.50;99.90
5278;DHT22;2662;51.194;6.614;2022-07-29T13:48:31;26.30;99.90
5278;DHT22;2662;51.194;6.614;2022-07-29T13:50:58;26.30;99.90
5278;DHT22;2662;51.194;6.614;2022-07-29T13:53:24;26.40;99.90
5278;DHT22;2662;51.194;6.614;2022-07-29T13:55:53;26.30;99.90
5278;DHT22;2662;51.194;6.614;2022-07-29T13:58:21;26.10;99.90
5278;DHT22;2662;51.194;6.614;2022-07-29T14:00:48;26.10;99.90
5278;DHT22;2662;51.194;6.614;2022-07-29T14:03:15;26.00;99.90
5278;DHT22;2662;51.194;6.614;2022-07-29T14:05:41;26.00;99.90
5278;DHT22;2662;51.194;6.614;2022-07-29T14:08:08;25.90;99.90
5278;DHT22;2662;51.194;6.614;2022-07-29T14:10:35;25.90;99.90
5278;DHT22;2662;51.194;6.614;2022-07-29T14:13:02;25.80;99.90
5278;DHT22;2662;51.194;6.614;2022-07-29T14:15:30;25.80;99.90
5278;DHT22;2662;51.194;6.614;2022-07-29T14:17:56;25.80;99.90
5278;DHT22;2662;51.194;6.614;2022-07-29T14:20:23;26.00;99.90
5278;DHT22;2662;51.194;6.614;2022-07-29T14:22:50;26.10;99.90
5278;DHT22;2662;51.194;6.614;2022-07-29T14:25:17;26.30;99.90
5278;DHT22;2662;51.194;6.614;2022-07-29T14:27:43;26.30;99.90
5278;DHT22;2662;51.194;6.614;2022-07-29T14:30:11;26.40;99.90
5278;DHT22;2662;51.194;6.614;2022-07-29T14:32:39;26.30;99.90
5278;DHT22;2662;51.194;6.614;2022-07-29T14:35:07;26.20;99.90
5278;DHT22;2662;51.194;6.614;2022-07-29T14:37:34;26.20;99.50
5278;DHT22;2662;51.194;6.614;2022-07-29T14:40:01;26.10;99.80
5278;DHT22;2662;51.194;6.614;2022-07-29T14:42:29;26.10;99.70
5278;DHT22;2662;51.194;6.614;2022-07-29T14:44:56;26.20;98.40
5278;DHT22;2662;51.194;6.614;2022-07-29T14:47:23;26.20;97.90
5278;DHT22;2662;51.194;6.614;2022-07-29T14:49:51;26.30;98.90
5278;DHT22;2662;51.194;6.614;2022-07-29T14:52:18;26.50;98.60
5278;DHT22;2662;51.194;6.614;2022-07-29T14:54:44;26.50;98.10
5278;DHT22;2662;51.194;6.614;2022-07-29T14:57:11;26.60;97.90
5278;DHT22;2662;51.194;6.614;2022-07-29T14:59:38;26.60;96.20
5278;DHT22;2662;51.194;6.614;2022-07-29T15:02:05;26.60;95.90
5278;DHT22;2662;51.194;6.614;2022-07-29T15:04:31;26.80;95.80
5278;DHT22;2662;51.194;6.614;2022-07-29T15:07:00;26.90;95.10
5278;DHT22;2662;51.194;6.614;2022-07-29T15:09:26;26.90;94.80
5278;DHT22;2662;51.194;6.614;2022-07-29T15:11:53;26.70;94.30
5278;DHT22;2662;51.194;6.614;2022-07-29T15:14:20;26.80;95.20
5278;DHT22;2662;51.194;6.614;2022-07-29T15:16:47;26.90;95.20
5278;DHT22;2662;51.194;6.614;2022-07-29T15:19:14;26.90;95.10
5278;DHT22;2662;51.194;6.614;2022-07-29T15:21:41;26.90;95.90
5278;DHT22;2662;51.194;6.614;2022-07-29T15:24:09;26.80;95.70
5278;DHT22;2662;51.194;6.614;2022-07-29T15:26:36;26.70;97.30
5278;DHT22;2662;51.194;6.614;2022-07-29T15:29:02;26.70;96.60
5278;DHT22;2662;51.194;6.614;2022-07-29T15:31:29;26.80;96.80
5278;DHT22;2662;51.194;6.614;2022-07-29T15:33:56;26.80;97.30
5278;DHT22;2662;51.194;6.614;2022-07-29T15:36:23;26.80;97.90
5278;DHT22;2662;51.194;6.614;2022-07-29T15:38:51;26.90;98.10
5278;DHT22;2662;51.194;6.614;2022-07-29T15:41:21;26.90;98.50
5278;DHT22;2662;51.194;6.614;2022-07-29T15:43:48;26.90;98.30
5278;DHT22;2662;51.194;6.614;2022-07-29T15:46:17;26.90;98.00
5278;DHT22;2662;51.194;6.614;2022-07-29T15:49:04;26.80;98.50
5278;DHT22;2662;51.194;6.614;2022-07-29T15:51:31;26.80;98.40
5278;DHT22;2662;51.194;6.614;2022-07-29T15:54:00;26.80;99.10
5278;DHT22;2662;51.194;6.614;2022-07-29T15:56:28;26.70;99.20
5278;DHT22;2662;51.194;6.614;2022-07-29T15:58:55;26.70;99.50
5278;DHT22;2662;51.194;6.614;2022-07-29T16:01:22;26.70;99.30
5278;DHT22;2662;51.194;6.614;2022-07-29T16:03:49;26.80;99.40
5278;DHT22;2662;51.194;6.614;2022-07-29T16:06:16;26.70;99.20
5278;DHT22;2662;51.194;6.614;2022-07-29T16:08:43;26.70;99.50
5278;DHT22;2662;51.194;6.614;2022-07-29T16:11:09;26.60;99.80
5278;DHT22;2662;51.194;6.614;2022-07-29T16:13:37;26.60;99.90
5278;DHT22;2662;51.194;6.614;2022-07-29T16:16:04;26.70;99.90
5278;DHT22;2662;51.194;6.614;2022-07-29T16:18:31;26.70;99.90
5278;DHT22;2662;51.194;6.614;2022-07-29T16:20:59;26.60;99.90
5278;DHT22;2662;51.194;6.614;2022-07-29T16:23:25;26.60;99.90
5278;DHT22;2662;51.194;6.614;2022-07-29T16:25:52;26.60;99.90
5278;DHT22;2662;51.194;6.614;2022-07-29T16:28:19;26.90;99.90
5278;DHT22;2662;51.194;6.614;2022-07-29T16:30:47;26.90;99.90